Time;durP1;ratioP1;P1;durP2;ratioP2;P2;SDS_P1;SDS_P2;PMS_P1;PMS_P2;Temp;Humidity;BMP_temperature;BMP_pressure;BME280_temperature;BME280_humidity;BME280_pressure;Samples;Min_cycle;Max_cycle;Signal;HPM_P1;HPM_P2
2022/10/01 00:02:11;;;;;;;15.70;11.85;;;;;;;;;;5004952;28;20493;-89
2022/10/01 00:04:45;;;;;;;14.60;11.85;;;;;;;;;;5005079;28;20382;-89
2022/10/01 00:07:14;;;;;;;15.95;11.88;;;10.90;99.90;;;;;;5009511;28;20567;-91
2022/10/01 00:09:43;;;;;;;16.33;12.73;;;;;;;;;;5025313;28;20042;-88
2022/10/01 00:12:09;;;;;;;16.05;12.88;;;11.00;99.90;;;;;;5001872;28;20587;-88
2022/10/01 00:14:40;;;;;;;17.85;12.15;;;;;;;;;;5003050;28;20045;-89
2022/10/01 00:17:06;;;;;;;15.35;12.20;;;;;;;;;;5030654;28;20100;-89
2022/10/01 00:19:39;;;;;;;16.08;12.73;;;;;;;;;;5028693;28;20131;-89
2022/10/01 00:22:06;;;;;;;15.48;12.48;;;;;;;;;;5008443;28;20049;-89
2022/10/01 00:24:36;;;;;;;15.50;12.18;;;;;;;;;;5007513;28;20045;-89
2022/10/01 00:27:02;;;;;;;15.65;12.02;;;11.10;99.90;;;;;;5013149;28;20037;-90
2022/10/01 00:29:28;;;;;;;18.50;12.63;;;;;;;;;;5030608;28;20044;-89
2022/10/01 00:31:54;;;;;;;15.32;12.48;;;10.90;99.90;;;;;;5061415;23;20056;-60
2022/10/01 00:34:19;;;;;;;17.60;12.20;;;10.80;99.90;;;;;;5007448;28;20050;-61
2022/10/01 00:36:45;;;;;;;16.52;13.18;;;10.90;99.90;;;;;;5007114;28;20036;-60
2022/10/01 00:39:11;;;;;;;20.15;12.55;;;10.80;99.90;;;;;;5007811;28;20491;-60
2022/10/01 00:41:37;;;;;;;16.13;12.65;;;;;;;;;;5005772;28;20048;-60
2022/10/01 00:44:26;;;;;;;17.92;14.05;;;10.80;99.90;;;;;;4983854;28;20042;-59
2022/10/01 00:46:54;;;;;;;15.95;12.90;;;11.40;99.90;;;;;;5000649;28;20611;-59
2022/10/01 00:49:25;;;;;;;16.20;12.40;;;11.00;99.90;;;;;;4993143;28;20050;-60
2022/10/01 00:51:56;;;;;;;15.20;11.48;;;10.70;99.90;;;;;;5000686;28;20495;-59
2022/10/01 00:54:29;;;;;;;15.95;12.38;;;11.00;99.90;;;;;;4996729;28;20504;-60
2022/10/01 00:56:57;;;;;;;16.75;12.07;;;10.70;99.90;;;;;;4998657;28;20539;-60
2022/10/01 00:59:24;;;;;;;14.35;11.40;;;10.50;99.90;;;;;;5000542;28;20092;-60
2022/10/01 01:01:50;;;;;;;14.43;11.50;;;10.70;99.90;;;;;;5001459;28;20483;-60
2022/10/01 01:04:15;;;;;;;13.23;10.68;;;10.80;99.90;;;;;;5000409;28;20252;-59
2022/10/01 01:06:52;;;;;;;14.25;10.48;;;11.10;99.90;;;;;;4998836;28;20040;-60
2022/10/01 01:09:19;;;;;;;13.50;11.05;;;11.70;99.90;;;;;;5001235;28;20043;-59
2022/10/01 01:11:50;;;;;;;16.15;11.77;;;;;;;;;;4995996;28;20046;-58
2022/10/01 01:14:41;;;;;;;14.25;10.60;;;10.90;99.90;;;;;;4998232;28;20034;-59
2022/10/01 01:17:46;;;;;;;13.65;10.55;;;11.20;99.90;;;;;;4995024;28;20142;-59
2022/10/01 01:20:23;;;;;;;14.50;10.30;;;11.30;99.90;;;;;;4978893;28;20050;-60
2022/10/01 01:22:59;;;;;;;13.35;10.38;;;10.60;1.00;;;;;;4994855;28;20042;-59
2022/10/01 01:25:43;;;;;;;15.15;10.80;;;10.90;1.00;;;;;;5001814;28;20069;-61
2022/10/01 01:28:30;;;;;;;12.48;10.40;;;10.60;1.00;;;;;;4992843;28;20037;-60
2022/10/01 01:31:01;;;;;;;16.60;10.60;;;10.50;1.00;;;;;;4997694;28;20081;-59
2022/10/01 01:33:31;;;;;;;13.77;10.00;;;10.80;1.00;;;;;;5002494;28;20070;-60
2022/10/01 01:36:03;;;;;;;12.57;10.18;;;11.30;1.00;;;;;;5000587;28;20042;-59
2022/10/01 01:38:36;;;;;;;14.23;10.38;;;11.30;1.00;;;;;;4999876;28;20568;-60
2022/10/01 01:41:02;;;;;;;13.38;9.52;;;11.20;1.00;;;;;;4978623;28;20065;-59
2022/10/01 01:43:34;;;;;;;13.75;10.20;;;;;;;;;;4981173;28;20122;-59
2022/10/01 01:46:03;;;;;;;15.38;10.32;;;11.00;1.00;;;;;;4994385;28;20403;-60
2022/10/01 01:48:31;;;;;;;13.10;8.60;;;11.00;1.00;;;;;;4999945;28;20034;-58
2022/10/01 01:51:03;;;;;;;13.80;8.52;;;10.80;1.00;;;;;;4999641;28;20512;-58
2022/10/01 01:53:31;;;;;;;13.05;10.32;;;10.80;1.00;;;;;;5000195;28;20042;-60
2022/10/01 01:55:59;;;;;;;15.77;9.30;;;11.10;1.00;;;;;;4997446;28;20039;-60
2022/10/01 01:58:26;;;;;;;17.58;8.75;;;11.30;1.00;;;;;;5000433;28;20569;-60
2022/10/01 02:00:52;;;;;;;11.73;9.13;;;11.60;1.00;;;;;;4992636;28;20122;-60
2022/10/01 02:03:24;;;;;;;12.30;9.32;;;11.20;1.00;;;;;;5005112;28;20504;-59
2022/10/01 02:06:18;;;;;;;12.30;8.93;;;11.10;1.00;;;;;;5001108;28;20121;-60
2022/10/01 02:08:51;;;;;;;10.55;7.60;;;11.00;1.00;;;;;;5001334;28;20042;-60
2022/10/01 02:11:20;;;;;;;11.82;7.60;;;10.80;1.00;;;;;;5000088;28;20371;-61
2022/10/01 02:14:01;;;;;;;11.73;9.07;;;11.50;1.00;;;;;;4993333;28;20399;-61
2022/10/01 02:16:41;;;;;;;11.18;8.15;;;11.00;1.00;;;;;;4989818;28;20037;-61
2022/10/01 02:19:32;;;;;;;12.20;7.72;;;11.30;1.00;;;;;;4980536;28;20034;-60
2022/10/01 02:22:01;;;;;;;11.77;7.53;;;11.50;1.00;;;;;;5002970;28;20487;-60
2022/10/01 02:24:44;;;;;;;10.27;7.82;;;11.10;1.00;;;;;;5003574;28;20496;-60
2022/10/01 02:27:38;;;;;;;10.27;7.53;;;11.20;1.00;;;;;;4994436;28;20513;-61
2022/10/01 02:30:07;;;;;;;10.10;6.55;;;11.30;1.00;;;;;;4990028;28;20042;-61
2022/10/01 02:32:36;;;;;;;11.00;6.53;;;11.20;1.00;;;;;;4994577;28;20117;-61
2022/10/01 02:35:04;;;;;;;9.27;6.82;;;11.20;1.00;;;;;;5010435;28;20404;-61
2022/10/01 02:37:32;;;;;;;8.90;6.35;;;11.50;1.00;;;;;;4997017;28;20240;-61
2022/10/01 02:40:00;;;;;;;9.35;6.82;;;11.20;1.00;;;;;;5000694;28;20551;-61
2022/10/01 02:42:28;;;;;;;10.20;5.90;;;11.10;1.00;;;;;;5002471;28;20393;-61
2022/10/01 02:44:55;;;;;;;8.73;6.28;;;11.40;1.00;;;;;;5010236;28;20045;-61
2022/10/01 02:47:43;;;;;;;9.82;7.05;;;11.40;1.00;;;;;;4997580;28;20036;-61
2022/10/01 02:50:09;;;;;;;8.85;6.65;;;11.30;1.00;;;;;;5008311;28;20065;-61
2022/10/01 02:52:53;;;;;;;10.48;6.28;;;11.30;1.00;;;;;;4998207;28;20037;-61
2022/10/01 02:55:38;;;;;;;10.47;6.10;;;11.50;10.70;;;;;;5000051;28;20038;-61
2022/10/01 02:58:04;;;;;;;8.15;5.57;;;11.20;1.00;;;;;;4996359;28;20340;-62
2022/10/01 03:00:30;;;;;;;8.48;6.25;;;11.50;1.00;;;;;;4999430;28;20101;-61
2022/10/01 03:02:58;;;;;;;8.88;5.88;;;11.10;1.00;;;;;;5002697;28;20038;-61
2022/10/01 03:05:24;;;;;;;6.47;4.13;;;11.50;1.00;;;;;;4996912;28;20126;-60
2022/10/01 03:07:50;;;;;;;8.85;5.65;;;12.00;1.00;;;;;;4999476;28;20069;-61
2022/10/01 03:10:16;;;;;;;7.60;5.05;;;11.60;1.00;;;;;;4982069;28;20050;-61
2022/10/01 03:12:45;;;;;;;6.07;3.70;;;11.80;1.00;;;;;;5002464;28;20030;-61
2022/10/01 03:15:12;;;;;;;6.25;4.07;;;11.50;1.00;;;;;;4999555;28;20041;-62
2022/10/01 03:17:38;;;;;;;6.20;4.00;;;11.50;1.00;;;;;;5000451;28;20040;-62
2022/10/01 03:20:05;;;;;;;7.50;3.53;;;11.70;1.00;;;;;;5003704;28;20061;-61
2022/10/01 03:22:34;;;;;;;7.35;3.60;;;11.70;1.00;;;;;;4998822;28;20389;-61
2022/10/01 03:24:59;;;;;;;6.07;3.50;;;11.30;1.00;;;;;;5001280;28;20037;-61
2022/10/01 03:27:25;;;;;;;5.60;3.35;;;11.70;1.00;;;;;;4996601;28;20560;-61
2022/10/01 03:29:50;;;;;;;6.50;3.42;;;11.90;1.00;;;;;;4999056;28;20034;-62
2022/10/01 03:32:16;;;;;;;6.95;3.30;;;11.70;1.00;;;;;;4996326;28;20047;-61
2022/10/01 03:34:47;;;;;;;6.05;3.13;;;11.60;1.00;;;;;;5002445;28;20055;-62
2022/10/01 03:37:13;;;;;;;5.78;3.60;;;12.00;1.00;;;;;;5006448;28;20050;-61
2022/10/01 03:39:39;;;;;;;6.40;3.50;;;11.90;1.00;;;;;;5003975;28;20050;-61
2022/10/01 03:42:05;;;;;;;5.95;3.88;;;12.00;1.00;;;;;;5000572;28;20038;-62
2022/10/01 03:44:34;;;;;;;5.85;3.35;;;11.90;19.90;;;;;;5007102;28;20050;-62
2022/10/01 03:47:00;;;;;;;7.03;2.97;;;11.40;53.10;;;;;;4997164;28;20045;-62
2022/10/01 03:49:28;;;;;;;5.65;3.28;;;12.20;35.60;;;;;;5006756;28;20029;-61
2022/10/01 03:52:01;;;;;;;6.45;4.43;;;11.70;46.30;;;;;;5001992;28;20408;-61
2022/10/01 03:54:29;;;;;;;7.50;4.30;;;12.10;39.20;;;;;;5001148;28;20093;-61
2022/10/01 03:56:58;;;;;;;6.53;4.07;;;11.50;67.20;;;;;;4981072;28;20042;-59
2022/10/01 03:59:26;;;;;;;7.50;4.70;;;11.70;92.30;;;;;;4998389;28;20046;-62
2022/10/01 04:01:58;;;;;;;9.48;5.32;;;11.80;91.70;;;;;;5007416;28;20027;-61
2022/10/01 04:04:27;;;;;;;6.80;4.88;;;12.00;95.60;;;;;;4997222;28;20117;-61
2022/10/01 04:06:56;;;;;;;6.65;4.70;;;12.20;99.90;;;;;;5008138;28;20038;-62
2022/10/01 04:09:27;;;;;;;8.23;5.20;;;11.70;98.80;;;;;;4995451;28;20508;-61
2022/10/01 04:11:53;;;;;;;7.07;4.07;;;12.00;99.90;;;;;;5000753;28;20049;-61
2022/10/01 04:14:22;;;;;;;6.10;4.07;;;12.10;99.90;;;;;;5010976;28;20081;-62
2022/10/01 04:16:51;;;;;;;6.50;5.05;;;12.00;99.90;;;;;;4996841;28;20475;-60
2022/10/01 04:19:17;;;;;;;7.88;5.28;;;12.00;91.60;;;;;;4999671;28;20050;-62
2022/10/01 04:21:46;;;;;;;6.32;4.28;;;12.20;99.90;;;;;;4982496;28;20129;-61
2022/10/01 04:24:15;;;;;;;7.13;5.20;;;12.10;99.90;;;;;;4990882;28;20448;-61
2022/10/01 04:26:40;;;;;;;8.50;5.57;;;11.80;99.90;;;;;;4999490;28;20076;-62
2022/10/01 04:29:09;;;;;;;10.50;5.68;;;12.20;99.90;;;;;;5000947;28;20057;-61
2022/10/01 04:31:35;;;;;;;8.27;5.70;;;12.60;99.90;;;;;;4996383;28;20518;-62
2022/10/01 04:34:01;;;;;;;10.15;5.68;;;12.40;99.90;;;;;;5004212;28;20064;-62
2022/10/01 04:36:27;;;;;;;8.05;5.53;;;;;;;;;;4989893;28;20057;-62
2022/10/01 04:38:58;;;;;;;8.25;5.22;;;;;;;;;;5013392;28;20034;-62
2022/10/01 04:41:24;;;;;;;9.43;6.95;;;12.50;42.50;;;;;;5005493;28;20057;-62
2022/10/01 04:43:50;;;;;;;10.18;6.97;;;12.60;48.80;;;;;;4988956;28;20125;-62
2022/10/01 04:46:19;;;;;;;10.75;7.78;;;12.70;1.00;;;;;;5001131;28;20211;-62
2022/10/01 04:48:47;;;;;;;10.35;7.38;;;13.20;5.30;;;;;;4998797;28;20497;-62
2022/10/01 04:51:12;;;;;;;9.05;6.40;;;12.70;48.40;;;;;;5001104;28;20042;-62
2022/10/01 04:53:41;;;;;;;14.77;7.75;;;12.50;99.60;;;;;;4997266;28;20490;-61
2022/10/01 04:56:06;;;;;;;13.57;7.97;;;12.60;58.70;;;;;;5000419;28;20413;-60
2022/10/01 04:58:32;;;;;;;12.38;7.60;;;12.90;80.70;;;;;;5010335;28;20045;-59
2022/10/01 05:00:57;;;;;;;17.23;8.82;;;12.70;36.30;;;;;;5013531;28;20252;-61
2022/10/01 05:03:23;;;;;;;10.82;7.28;;;12.80;61.80;;;;;;5005829;28;20125;-61
2022/10/01 05:05:49;;;;;;;12.18;7.43;;;12.40;99.90;;;;;;4998589;28;20080;-62
2022/10/01 05:08:14;;;;;;;9.85;5.55;;;12.70;97.90;;;;;;4998964;28;20034;-62
2022/10/01 05:10:40;;;;;;;12.68;6.35;;;12.60;99.90;;;;;;4988956;28;20077;-62
2022/10/01 05:13:06;;;;;;;11.63;7.25;;;12.70;99.90;;;;;;4999326;28;20042;-61
2022/10/01 05:15:32;;;;;;;11.10;7.70;;;13.10;99.90;;;;;;4986353;28;20037;-61
2022/10/01 05:17:57;;;;;;;17.58;7.07;;;13.00;99.90;;;;;;5008391;28;20038;-62
2022/10/01 05:20:25;;;;;;;11.85;7.25;;;12.60;99.90;;;;;;5004916;28;20478;-62
2022/10/01 05:22:51;;;;;;;12.13;7.30;;;12.40;99.90;;;;;;5000155;28;20419;-61
2022/10/01 05:25:18;;;;;;;11.23;5.90;;;12.90;99.90;;;;;;4998345;28;20043;-61
2022/10/01 05:27:44;;;;;;;13.70;7.60;;;13.80;46.30;;;;;;4996535;28;20043;-60
2022/10/01 05:30:13;;;;;;;12.98;7.57;;;13.30;1.00;;;;;;4993818;28;20104;-62
2022/10/01 05:32:39;;;;;;;12.02;7.10;;;13.00;66.60;;;;;;4977817;28;20121;-60
2022/10/01 05:35:06;;;;;;;13.27;7.38;;;12.40;99.90;;;;;;4983949;28;20113;-60
2022/10/01 05:37:32;;;;;;;12.88;6.80;;;12.90;99.90;;;;;;5000825;28;20100;-61
2022/10/01 05:39:58;;;;;;;16.23;8.10;;;12.80;99.90;;;;;;5004251;28;20266;-60
2022/10/01 05:42:23;;;;;;;17.38;8.65;;;12.60;99.90;;;;;;5009938;28;20041;-60
2022/10/01 05:44:49;;;;;;;13.50;7.47;;;12.60;99.90;;;;;;5010263;28;20546;-62
2022/10/01 05:47:16;;;;;;;12.30;6.55;;;12.20;99.90;;;;;;4998955;28;20041;-62
2022/10/01 05:49:43;;;;;;;12.02;7.15;;;12.90;99.90;;;;;;5009322;28;20037;-62
2022/10/01 05:52:14;;;;;;;16.35;6.97;;;13.90;99.90;;;;;;5003928;28;20061;-61
2022/10/01 05:54:40;;;;;;;14.80;6.95;;;;;;;;;;5007558;28;20400;-61
2022/10/01 05:57:06;;;;;;;16.30;7.97;;;12.60;99.90;;;;;;5000061;28;20096;-61
2022/10/01 05:59:33;;;;;;;20.70;7.40;;;13.30;99.90;;;;;;5008244;28;20089;-62
2022/10/01 06:01:59;;;;;;;12.25;6.75;;;12.80;99.90;;;;;;5006631;28;20089;-60
2022/10/01 06:04:24;;;;;;;11.60;6.32;;;12.80;99.90;;;;;;4994183;28;20046;-61
2022/10/01 06:06:51;;;;;;;16.67;6.72;;;12.60;99.90;;;;;;4994371;28;20385;-59
2022/10/01 06:09:17;;;;;;;15.40;8.43;;;12.60;99.90;;;;;;5008947;28;20030;-60
2022/10/01 06:11:43;;;;;;;14.63;7.13;;;12.70;99.90;;;;;;5007452;28;20480;-61
2022/10/01 06:14:08;;;;;;;13.35;6.97;;;12.90;99.90;;;;;;5010620;28;20037;-60
2022/10/01 06:16:34;;;;;;;18.90;7.40;;;12.70;99.90;;;;;;5005361;28;20096;-60
2022/10/01 06:18:59;;;;;;;15.23;6.75;;;12.40;99.90;;;;;;5007674;28;20033;-62
2022/10/01 06:21:26;;;;;;;21.17;7.18;;;12.40;99.90;;;;;;4988860;28;20038;-61
2022/10/01 06:23:52;;;;;;;13.63;6.57;;;12.60;99.90;;;;;;5007681;28;20043;-61
2022/10/01 06:26:19;;;;;;;12.95;6.15;;;13.10;99.90;;;;;;4990237;28;20087;-61
2022/10/01 06:28:47;;;;;;;15.73;6.75;;;12.90;99.90;;;;;;4996637;28;20053;-61
2022/10/01 06:31:23;;;;;;;22.38;8.07;;;;;;;;;;5006347;22;20042;-92
2022/10/01 06:33:56;;;;;;;14.30;6.15;;;;;;;;;;4978780;28;20038;-90
2022/10/01 06:36:35;;;;;;;18.38;6.72;;;13.00;99.90;;;;;;4953087;28;20050;-88
2022/10/01 06:39:07;;;;;;;15.02;6.38;;;12.90;99.90;;;;;;4985310;28;20088;-91
2022/10/01 06:41:33;;;;;;;19.15;6.47;;;13.00;99.90;;;;;;4966340;28;20045;-90
2022/10/01 06:44:13;;;;;;;21.83;7.47;;;12.90;99.90;;;;;;4972865;28;20569;-89
2022/10/01 06:46:47;;;;;;;19.10;6.13;;;13.30;99.90;;;;;;4984294;28;20038;-88
2022/10/01 06:49:21;;;;;;;21.65;5.93;;;12.80;99.90;;;;;;4962890;28;20046;-89
2022/10/01 06:54:52;;;;;;;17.35;5.38;;;13.00;99.90;;;;;;4988420;28;20518;-88
2022/10/01 06:57:24;;;;;;;18.27;6.05;;;13.00;99.90;;;;;;4963018;28;20089;-89
2022/10/01 06:59:52;;;;;;;17.73;6.28;;;13.20;99.90;;;;;;4984542;28;20044;-91
2022/10/01 07:02:40;;;;;;;16.92;6.20;;;13.20;99.90;;;;;;4959460;28;20125;-89
2022/10/01 07:05:09;;;;;;;18.60;5.75;;;;;;;;;;4985985;28;20553;-89
2022/10/01 07:07:43;;;;;;;15.50;5.13;;;13.00;99.90;;;;;;4976355;28;20453;-88
2022/10/01 07:10:23;;;;;;;23.92;6.05;;;12.90;99.90;;;;;;4965513;28;20038;-90
2022/10/01 07:13:11;;;;;;;17.05;5.15;;;13.10;99.90;;;;;;4978804;28;20048;-90
2022/10/01 07:15:46;;;;;;;24.20;5.15;;;13.00;99.90;;;;;;4957881;28;20052;-90
2022/10/01 07:18:18;;;;;;;21.25;5.45;;;;;;;;;;4956659;28;20038;-90
2022/10/01 07:20:44;;;;;;;14.68;4.50;;;12.90;99.90;;;;;;4967900;28;20085;-90
2022/10/01 07:23:18;;;;;;;17.88;5.25;;;13.40;99.90;;;;;;4998243;28;20034;-89
2022/10/01 07:25:46;;;;;;;18.67;4.65;;;13.00;99.90;;;;;;4969318;28;20161;-92
2022/10/01 07:28:22;;;;;;;19.55;5.07;;;13.20;99.90;;;;;;4997210;28;20126;-90
2022/10/01 07:30:59;;;;;;;15.00;3.95;;;;;;;;;;4996123;28;20045;-89
2022/10/01 07:33:25;;;;;;;32.83;4.68;;;13.30;99.90;;;;;;4999154;28;20047;-92
2022/10/01 07:35:52;;;;;;;11.35;3.50;;;;;;;;;;4975182;28;20041;-90
2022/10/01 07:38:24;;;;;;;15.30;4.28;;;13.90;99.90;;;;;;4963186;28;20050;-90
2022/10/01 07:40:53;;;;;;;13.98;3.80;;;13.30;99.90;;;;;;4964962;28;20057;-88
2022/10/01 07:43:22;;;;;;;13.10;3.30;;;13.80;99.90;;;;;;4972909;28;20109;-91
2022/10/01 07:45:53;;;;;;;19.48;3.80;;;13.30;99.90;;;;;;4994206;28;20046;-90
2022/10/01 07:48:26;;;;;;;;;;;13.60;99.90;;;;;;5002137;28;20050;-91
2022/10/01 07:50:56;;;;;;;16.08;3.33;;;14.20;58.90;;;;;;4996928;28;19981;-90
2022/10/01 07:53:39;;;;;;;15.20;4.15;;;13.80;24.80;;;;;;5014766;28;20046;-89
2022/10/01 07:56:05;;;;;;;15.57;3.50;;;14.10;1.00;;;;;;4995730;28;20056;-91
2022/10/01 07:58:53;;;;;;;13.00;3.42;;;14.10;99.90;;;;;;5002935;28;20121;-89
2022/10/01 08:01:31;;;;;;;9.90;2.65;;;14.30;99.90;;;;;;4977546;28;20046;-89
2022/10/01 08:05:16;;;;;;;12.90;3.40;;;14.80;99.90;;;;;;4983451;28;20540;-89
2022/10/01 08:07:00;;;;;;;11.02;3.10;;;14.60;99.90;;;;;;4966258;28;20049;-89
2022/10/01 08:09:28;;;;;;;11.63;3.47;;;14.90;99.90;;;;;;4995461;28;20105;-89
2022/10/01 08:11:57;;;;;;;10.52;2.67;;;14.60;99.90;;;;;;4988863;28;20104;-89
2022/10/01 08:14:23;;;;;;;18.52;3.65;;;14.90;99.90;;;;;;4969349;28;20049;-91
2022/10/01 08:17:09;;;;;;;;;;;;;;;;;;;;;
2022/10/01 08:20:01;;;;;;;15.95;3.50;;;14.70;99.90;;;;;;4967991;28;20050;-90
2022/10/01 08:26:42;;;;;;;;;;;;;;;;;;;;;
2022/10/01 08:29:27;;;;;;;13.00;2.70;;;13.80;99.90;;;;;;5003925;28;20038;-94
2022/10/01 08:32:09;;;;;;;10.75;2.67;;;;;;;;;;5010170;28;20106;-94
2022/10/01 08:34:48;;;;;;;13.27;3.47;;;13.40;99.90;;;;;;5004031;28;20030;-91
2022/10/01 08:40:22;;;;;;;10.70;2.55;;;13.20;99.90;;;;;;4997216;28;20030;-93
2022/10/01 08:43:20;;;;;;;8.85;3.05;;;13.00;99.90;;;;;;5001370;28;20042;-94
2022/10/01 08:45:53;;;;;;;7.53;1.90;;;;;;;;;;4963568;28;20042;-92
2022/10/01 08:48:57;;;;;;;7.32;1.77;;;13.50;99.90;;;;;;4991531;28;20038;-91
2022/10/01 08:51:32;;;;;;;7.13;2.15;;;;;;;;;;5003313;28;20034;-92
2022/10/01 08:54:24;;;;;;;6.70;1.95;;;13.00;99.90;;;;;;4979324;28;20042;-91
2022/10/01 08:57:01;;;;;;;7.10;1.80;;;13.60;99.90;;;;;;4984217;28;20486;-87
2022/10/01 08:59:52;;;;;;;7.55;1.60;;;13.00;99.90;;;;;;4961072;28;20050;-91
2022/10/01 09:02:30;;;;;;;8.52;1.60;;;13.30;1.00;;;;;;4978258;28;20054;-90
2022/10/01 09:05:21;;;;;;;8.30;1.65;;;13.70;1.00;;;;;;4986592;28;20152;-92
2022/10/01 09:08:42;;;;;;;11.45;2.50;;;13.70;99.90;;;;;;4961231;28;20133;-90
2022/10/01 09:15:29;;;;;;;8.07;1.80;;;13.80;1.00;;;;;;4960273;28;20070;-90
2022/10/01 09:18:29;;;;;;;;;;;13.30;99.90;;;;;;4929530;28;20042;-89
2022/10/01 09:21:01;;;;;;;9.90;2.63;;;;;;;;;;4970208;28;20004;-91
2022/10/01 09:23:33;;;;;;;8.57;1.83;;;;;;;;;;4954321;28;20475;-91
2022/10/01 09:26:23;;;;;;;7.38;1.50;;;12.90;99.90;;;;;;4968670;28;20042;-90
2022/10/01 09:29:02;;;;;;;6.25;1.70;;;13.00;99.90;;;;;;4976224;28;20038;-89
2022/10/01 09:32:10;;;;;;;11.68;2.40;;;;;;;;;;4995292;28;20054;-91
2022/10/01 09:52:48;;;;;;;11.65;3.47;;;12.70;99.90;;;;;;5016741;23;20069;-65
2022/10/01 09:55:17;;;;;;;11.13;3.00;;;12.70;99.90;;;;;;4995492;28;20049;-65
2022/10/01 09:58:03;;;;;;;11.60;2.28;;;12.30;99.90;;;;;;4995624;28;20496;-65
2022/10/01 10:00:29;;;;;;;9.57;2.40;;;12.20;99.90;;;;;;4997526;28;20485;-66
2022/10/01 10:02:55;;;;;;;10.32;3.05;;;12.00;99.90;;;;;;5001850;28;20085;-66
2022/10/01 10:05:26;;;;;;;9.77;2.58;;;12.90;99.90;;;;;;5003665;28;20045;-66
2022/10/01 10:07:57;;;;;;;10.50;2.38;;;12.60;99.90;;;;;;5001799;28;20522;-64
2022/10/01 10:10:34;;;;;;;9.18;2.83;;;12.50;99.90;;;;;;4987101;28;20117;-65
2022/10/01 10:13:03;;;;;;;6.80;2.05;;;12.20;99.90;;;;;;5004451;28;20038;-66
2022/10/01 10:15:31;;;;;;;10.45;3.50;;;12.70;99.90;;;;;;5004171;28;20034;-66
2022/10/01 10:18:05;;;;;;;8.57;2.00;;;12.50;99.90;;;;;;5000465;28;20403;-66
2022/10/01 10:20:40;;;;;;;9.40;1.88;;;12.70;99.90;;;;;;5003913;28;20484;-66
2022/10/01 10:23:21;;;;;;;10.60;2.00;;;12.80;99.90;;;;;;5006384;28;20034;-66
2022/10/01 10:26:01;;;;;;;8.85;2.35;;;12.30;99.90;;;;;;5000619;28;20052;-66
2022/10/01 10:28:38;;;;;;;11.07;3.33;;;12.80;99.90;;;;;;5003959;28;20038;-65
2022/10/01 10:31:18;;;;;;;11.30;2.97;;;12.70;99.90;;;;;;4988497;28;20046;-66
2022/10/01 10:33:52;;;;;;;14.20;3.25;;;12.60;99.90;;;;;;5002117;28;20542;-65
2022/10/01 10:36:19;;;;;;;13.70;3.90;;;12.70;99.90;;;;;;5003503;28;20050;-65
2022/10/01 10:38:52;;;;;;;10.48;2.22;;;12.80;99.90;;;;;;5000474;28;20055;-66
2022/10/01 10:41:24;;;;;;;17.63;2.92;;;13.00;99.90;;;;;;5005414;28;20075;-66
2022/10/01 10:43:55;;;;;;;15.18;3.70;;;12.70;99.90;;;;;;5000379;28;20056;-66
2022/10/01 10:46:32;;;;;;;14.90;3.53;;;12.70;99.90;;;;;;5002779;28;20042;-66
2022/10/01 10:49:22;;;;;;;16.80;4.05;;;13.20;1.00;;;;;;4985441;28;20042;-67
2022/10/01 10:51:52;;;;;;;18.52;4.47;;;13.00;99.90;;;;;;5002073;28;20507;-67
2022/10/01 10:54:30;;;;;;;15.00;3.95;;;13.50;1.00;;;;;;5003632;28;20146;-67
2022/10/01 10:57:02;;;;;;;14.95;3.83;;;13.70;99.90;;;;;;5005394;28;20125;-67
2022/10/01 10:59:33;;;;;;;20.30;5.03;;;13.80;1.00;;;;;;4993052;28;20038;-69
2022/10/01 11:02:02;;;;;;;20.77;4.85;;;14.30;1.00;;;;;;4994616;28;20038;-68
2022/10/01 11:04:43;;;;;;;13.70;3.42;;;14.30;99.90;;;;;;4993145;28;20049;-68
2022/10/01 11:07:12;;;;;;;13.32;3.15;;;13.80;99.90;;;;;;4992290;28;20045;-66
2022/10/01 11:10:07;;;;;;;10.13;2.60;;;14.60;99.90;;;;;;4994897;28;20035;-67
2022/10/01 11:12:37;;;;;;;6.53;2.25;;;14.80;99.90;;;;;;5004757;28;20034;-67
2022/10/01 11:15:36;;;;;;;14.63;4.07;;;14.50;48.30;;;;;;4989595;28;20041;-66
2022/10/01 11:18:09;;;;;;;8.02;2.35;;;15.30;1.00;;;;;;4991031;28;20042;-67
2022/10/01 11:20:42;;;;;;;20.23;2.83;;;;;;;;;;4993735;28;20073;-67
2022/10/01 11:23:37;;;;;;;9.45;2.50;;;14.60;1.00;;;;;;4995529;28;20049;-67
2022/10/01 11:26:17;;;;;;;8.80;2.30;;;15.00;1.00;;;;;;5001135;28;20042;-67
2022/10/01 11:29:04;;;;;;;9.73;2.92;;;14.90;1.00;;;;;;5005116;28;20161;-67
2022/10/01 11:31:35;;;;;;;8.02;2.28;;;14.80;99.90;;;;;;4998712;28;20077;-67
2022/10/01 11:34:36;;;;;;;11.30;2.20;;;14.50;99.90;;;;;;4999253;28;20042;-67
2022/10/01 11:37:36;;;;;;;11.43;2.30;;;14.30;99.90;;;;;;5009798;28;20065;-67
2022/10/01 11:40:16;;;;;;;9.60;2.25;;;14.20;99.90;;;;;;5004189;28;20056;-67
2022/10/01 11:42:44;;;;;;;12.43;2.13;;;14.70;99.90;;;;;;5007260;28;20038;-67
2022/10/01 11:45:34;;;;;;;13.45;2.20;;;14.60;99.90;;;;;;4994039;28;20043;-68
2022/10/01 11:48:37;;;;;;;11.18;2.90;;;14.90;99.90;;;;;;5008990;28;20038;-68
2022/10/01 11:51:14;;;;;;;9.60;2.78;;;15.50;71.80;;;;;;5001227;28;20070;-67
2022/10/01 11:53:46;;;;;;;10.40;2.20;;;14.90;24.90;;;;;;4996643;28;20593;-67
2022/10/01 11:59:24;;;;;;;7.53;1.85;;;15.00;99.90;;;;;;4997096;28;20046;-67
2022/10/01 12:02:14;;;;;;;6.85;2.00;;;14.80;99.90;;;;;;5000495;28;20391;-67
2022/10/01 12:05:01;;;;;;;8.10;2.58;;;14.90;99.90;;;;;;4998695;28;20042;-68
2022/10/01 12:07:43;;;;;;;9.13;2.30;;;15.60;97.70;;;;;;4999629;28;20416;-67
2022/10/01 12:10:18;;;;;;;9.88;1.70;;;15.60;99.90;;;;;;4985376;28;20047;-67
2022/10/01 12:12:53;;;;;;;7.63;2.20;;;15.80;99.90;;;;;;4982277;28;20109;-67
2022/10/01 12:15:44;;;;;;;11.43;1.98;;;15.90;99.90;;;;;;4995189;28;20416;-67
2022/10/01 12:18:47;;;;;;;12.65;3.13;;;15.50;1.00;;;;;;4995366;28;20050;-67
2022/10/01 12:21:21;;;;;;;12.52;2.47;;;15.70;71.10;;;;;;4999869;28;20042;-67
2022/10/01 12:24:11;;;;;;;11.65;2.28;;;15.50;1.00;;;;;;4985018;28;20623;-67
2022/10/01 12:26:58;;;;;;;10.20;2.80;;;15.10;99.90;;;;;;5003590;28;20134;-66
2022/10/01 12:29:36;;;;;;;11.00;2.53;;;15.40;99.90;;;;;;4984367;28;20070;-66
2022/10/01 12:32:23;;;;;;;9.00;2.40;;;14.80;99.90;;;;;;5084956;22;20053;-63
2022/10/01 12:35:03;;;;;;;6.70;1.77;;;14.80;22.70;;;;;;5028663;28;20095;-63
2022/10/01 12:37:34;;;;;;;9.18;2.17;;;14.60;99.90;;;;;;5028959;28;20448;-63
2022/10/01 12:40:26;;;;;;;5.75;1.58;;;14.80;99.90;;;;;;5010588;28;20072;-63
2022/10/01 12:43:07;;;;;;;11.20;2.40;;;14.80;99.90;;;;;;5007535;28;20045;-63
2022/10/01 12:46:10;;;;;;;6.80;1.77;;;15.20;99.90;;;;;;5023603;28;20037;-63
2022/10/01 12:48:42;;;;;;;8.10;2.38;;;16.20;99.90;;;;;;5028513;28;20073;-63
2022/10/01 12:51:19;;;;;;;7.55;1.80;;;16.20;1.00;;;;;;5020215;28;20037;-63
2022/10/01 12:54:00;;;;;;;12.15;2.53;;;15.80;99.90;;;;;;5014562;28;20041;-63
2022/10/01 12:56:36;;;;;;;8.82;2.05;;;15.80;99.90;;;;;;5013954;28;20508;-63
2022/10/01 12:59:20;;;;;;;14.05;3.00;;;16.80;99.90;;;;;;5014045;28;20066;-63
2022/10/01 13:02:30;;;;;;;9.23;2.22;;;17.90;26.90;;;;;;5013363;28;20133;-62
2022/10/01 13:05:22;;;;;;;10.05;2.47;;;19.00;99.90;;;;;;5014486;28;20033;-63
2022/10/01 13:08:06;;;;;;;11.40;2.97;;;20.00;1.00;;;;;;5024473;28;20125;-63
2022/10/01 13:10:47;;;;;;;11.20;2.70;;;21.10;99.90;;;;;;5015003;28;20078;-63
2022/10/01 13:13:24;;;;;;;9.00;2.70;;;20.90;99.90;;;;;;5024011;28;20397;-62
2022/10/01 13:16:04;;;;;;;10.63;2.47;;;21.20;12.50;;;;;;5026873;28;20033;-62
2022/10/01 13:19:02;;;;;;;13.05;2.83;;;21.40;99.90;;;;;;5000859;28;20108;-63
2022/10/01 13:21:44;;;;;;;10.98;3.83;;;21.80;45.80;;;;;;5013682;28;20088;-62
2022/10/01 13:24:21;;;;;;;8.45;2.28;;;23.00;99.90;;;;;;5018534;28;20037;-63
2022/10/01 13:27:03;;;;;;;10.75;2.20;;;23.30;1.00;;;;;;5019243;28;20120;-62
2022/10/01 13:29:53;;;;;;;10.52;2.17;;;23.80;99.90;;;;;;5026505;28;20038;-62
2022/10/01 13:32:27;;;;;;;10.68;3.08;;;24.60;99.90;;;;;;4997994;28;20491;-63
2022/10/01 13:34:53;;;;;;;8.70;2.45;;;23.80;99.90;;;;;;5016726;28;20045;-62
2022/10/01 13:37:38;;;;;;;9.85;2.55;;;23.40;99.90;;;;;;5017498;28;20046;-62
2022/10/01 13:40:23;;;;;;;9.95;2.25;;;23.70;99.90;;;;;;5022842;28;20492;-62
2022/10/01 13:42:52;;;;;;;13.95;2.85;;;24.70;99.90;;;;;;5029105;28;20590;-62
2022/10/01 13:45:33;;;;;;;14.00;2.90;;;25.50;99.90;;;;;;5028565;28;20041;-63
2022/10/01 13:48:10;;;;;;;12.85;2.97;;;25.50;99.90;;;;;;5024963;28;20084;-63
2022/10/01 13:50:54;;;;;;;15.63;2.97;;;25.60;99.90;;;;;;5011706;28;20056;-63
2022/10/01 13:53:25;;;;;;;13.02;2.78;;;25.70;99.90;;;;;;5032775;28;20037;-63
2022/10/01 13:55:52;;;;;;;9.13;2.40;;;25.90;99.90;;;;;;5031478;28;20039;-63
2022/10/01 13:58:31;;;;;;;10.00;2.47;;;26.40;99.90;;;;;;5033979;28;20038;-62
2022/10/01 14:01:00;;;;;;;10.55;3.30;;;25.80;99.90;;;;;;5028689;28;20441;-63
2022/10/01 14:04:04;;;;;;;10.18;2.72;;;26.30;99.90;;;;;;5032642;28;20037;-63
2022/10/01 14:06:35;;;;;;;8.55;2.30;;;26.60;99.90;;;;;;4903091;29;20075;-62